createdAt,value
2019-03-18T00:00:30.110Z,0.50
2019-03-18T00:03:01.555Z,0.50
2019-03-18T00:05:32.996Z,0.80
2019-03-18T00:08:04.197Z,0.50
2019-03-18T00:10:35.634Z,0.50
2019-03-18T00:13:06.719Z,0.50
2019-03-18T00:15:37.801Z,0.50
2019-03-18T00:18:09.002Z,0.50
2019-03-18T00:20:40.325Z,0.50
2019-03-18T00:23:11.651Z,0.50
2019-03-18T00:25:42.845Z,0.60
2019-03-18T00:28:14.174Z,0.50
2019-03-18T00:30:44.890Z,0.50
2019-03-18T00:33:16.333Z,0.60
2019-03-18T00:35:47.333Z,0.53
2019-03-18T00:38:18.371Z,0.50
2019-03-18T00:40:50.181Z,0.60
2019-03-18T00:43:21.495Z,0.43
2019-03-18T00:45:52.337Z,0.60
2019-03-18T00:48:23.657Z,0.50
2019-03-18T00:50:54.623Z,0.60
2019-03-18T00:53:26.058Z,0.60
2019-03-18T00:55:59.543Z,1.00
2019-03-18T00:58:30.740Z,1.30
2019-03-18T01:01:01.585Z,0.80
2019-03-18T01:03:33.502Z,0.60
2019-03-18T01:06:04.825Z,0.77
2019-03-18T01:08:35.788Z,0.80
2019-03-18T01:11:07.347Z,0.60
2019-03-18T01:13:38.669Z,0.50
2019-03-18T01:16:09.869Z,0.50
2019-03-18T01:18:40.831Z,0.60
2019-03-18T01:21:11.433Z,0.50
2019-03-18T01:23:42.273Z,0.60
2019-03-18T01:26:13.354Z,0.50
2019-03-18T01:28:44.320Z,0.50
2019-03-18T01:31:15.285Z,0.80
2019-03-18T01:33:46.721Z,0.50
2019-03-18T01:36:18.401Z,0.50
2019-03-18T01:38:49.483Z,0.60
2019-03-18T01:41:20.443Z,0.60
2019-03-18T01:43:52.008Z,0.60
2019-03-18T01:46:23.685Z,0.70
2019-03-18T01:48:54.890Z,0.70
2019-03-18T01:51:25.969Z,0.50
2019-03-18T01:53:57.058Z,0.70
2019-03-18T01:56:28.133Z,0.60
2019-03-18T01:58:58.971Z,0.60
2019-03-18T02:01:30.055Z,0.60
2019-03-18T02:04:01.626Z,0.60
2019-03-18T02:06:32.577Z,0.60
2019-03-18T02:09:03.779Z,0.60
2019-03-18T02:11:34.738Z,0.80
2019-03-18T02:14:06.059Z,0.70
2019-03-18T02:16:36.779Z,0.60
2019-03-18T02:19:07.865Z,0.67
2019-03-18T02:21:38.824Z,0.50
2019-03-18T02:24:09.670Z,0.63
2019-03-18T02:26:40.987Z,0.60
2019-03-18T02:29:11.949Z,0.60
2019-03-18T02:31:43.390Z,0.60
2019-03-18T02:34:14.469Z,0.60
2019-03-18T02:36:45.312Z,0.70
2019-03-18T02:39:16.275Z,0.80
2019-03-18T02:41:47.836Z,0.80
2019-03-18T02:44:18.673Z,0.60
2019-03-18T02:46:49.567Z,0.70
2019-03-18T02:49:20.958Z,0.70
2019-03-18T02:51:53.165Z,0.80
2019-03-18T02:54:24.202Z,0.60
2019-03-18T02:56:55.286Z,0.70
2019-03-18T02:59:26.605Z,0.63
2019-03-18T03:01:57.692Z,0.73
2019-03-18T03:04:28.287Z,0.80
2019-03-18T03:06:59.368Z,0.70
2019-03-18T03:09:30.447Z,0.70
2019-03-18T03:12:02.012Z,0.77
2019-03-18T03:14:32.738Z,0.70
2019-03-18T03:17:04.173Z,0.70
2019-03-18T03:19:35.017Z,0.73
2019-03-18T03:22:07.416Z,0.63
2019-03-18T03:24:38.256Z,0.70
2019-03-18T03:27:09.219Z,0.67
2019-03-18T03:29:40.056Z,0.70
2019-03-18T03:32:10.779Z,0.60
2019-03-18T03:34:41.620Z,0.80
2019-03-18T03:37:13.785Z,2.00
2019-03-18T03:39:44.744Z,0.80
2019-03-18T03:42:15.949Z,0.80
2019-03-18T03:44:46.786Z,0.80
2019-03-18T03:47:17.868Z,0.80
2019-03-18T03:49:49.070Z,0.80
2019-03-18T03:52:19.909Z,0.67
2019-03-18T03:54:50.994Z,0.63
2019-03-18T03:57:22.079Z,0.67
2019-03-18T03:59:53.275Z,0.70
2019-03-18T04:02:24.234Z,0.70
2019-03-18T04:04:55.561Z,0.90
2019-03-18T04:07:26.757Z,0.80
2019-03-18T04:09:58.443Z,0.80
2019-03-18T04:12:29.521Z,1.17
2019-03-18T04:15:00.615Z,0.80
2019-03-18T04:17:31.561Z,0.80
2019-03-18T04:20:02.657Z,0.67
2019-03-18T04:22:33.963Z,0.60
2019-03-18T04:25:05.289Z,0.60
2019-03-18T04:27:36.248Z,0.63
2019-03-18T04:30:08.167Z,0.80
2019-03-18T04:32:39.128Z,0.63
2019-03-18T04:35:15.619Z,0.60
2019-03-18T04:37:46.696Z,0.63
2019-03-18T04:40:18.020Z,0.63
2019-03-18T04:42:48.973Z,0.70
2019-03-18T04:45:20.062Z,0.70
2019-03-18T04:47:50.896Z,0.80
2019-03-18T04:50:22.337Z,0.70
2019-03-18T04:52:53.178Z,0.73
2019-03-18T04:55:23.902Z,1.10
2019-03-18T04:57:55.343Z,1.57
2019-03-18T05:00:26.306Z,1.10
2019-03-18T05:02:57.148Z,1.03
2019-03-18T05:05:28.108Z,0.80
2019-03-18T05:07:58.706Z,0.87
2019-03-18T05:10:29.811Z,0.80
2019-03-18T05:13:00.390Z,0.80
2019-03-18T05:15:31.590Z,0.80
2019-03-18T05:18:02.560Z,1.03
2019-03-18T05:20:33.272Z,0.83
2019-03-18T05:23:04.000Z,0.93
2019-03-18T05:25:34.958Z,0.87
2019-03-18T05:28:05.916Z,0.60
2019-03-18T05:30:37.238Z,0.73
2019-03-18T05:33:08.086Z,0.90
2019-03-18T05:35:39.282Z,0.80
2019-03-18T05:38:10.362Z,0.97
2019-03-18T05:40:41.325Z,0.90
2019-03-18T05:43:12.526Z,1.10
2019-03-18T05:45:44.243Z,1.20
2019-03-18T05:48:15.529Z,0.77
2019-03-18T05:50:47.688Z,0.90
2019-03-18T05:53:18.770Z,0.90
2019-03-18T05:55:49.370Z,1.10
2019-03-18T05:58:21.293Z,0.90
2019-03-18T06:00:52.615Z,0.80
2019-03-18T06:03:23.694Z,0.97
2019-03-18T06:05:54.777Z,1.00
2019-03-18T06:08:25.737Z,0.93
2019-03-18T06:10:56.818Z,1.33
2019-03-18T06:13:27.658Z,1.40
2019-03-18T06:15:58.501Z,1.93
2019-03-18T06:18:29.703Z,1.90
2019-03-18T06:21:00.788Z,2.20
2019-03-18T06:23:31.984Z,1.43
2019-03-18T06:26:03.199Z,1.10
2019-03-18T06:28:34.388Z,1.27
2019-03-18T06:31:05.588Z,1.43
2019-03-18T06:33:36.908Z,1.30
2019-03-18T06:36:07.753Z,1.20
2019-03-18T06:38:38.720Z,0.93
2019-03-18T06:41:10.034Z,1.30
2019-03-18T06:43:41.596Z,1.00
2019-03-18T06:46:12.916Z,1.00
2019-03-18T06:48:44.322Z,0.90
2019-03-18T06:51:15.438Z,0.90
2019-03-18T06:53:46.760Z,1.00
2019-03-18T06:56:17.721Z,1.00
2019-03-18T06:58:50.004Z,1.00
2019-03-18T07:01:20.853Z,0.90
2019-03-18T07:03:51.565Z,1.10
2019-03-18T07:06:22.767Z,1.10
2019-03-18T07:08:54.087Z,1.10
2019-03-18T07:11:24.931Z,1.10
2019-03-18T07:13:55.894Z,0.77
2019-03-18T07:16:26.856Z,0.77
2019-03-18T07:18:58.412Z,1.00
2019-03-18T07:21:29.621Z,0.80
2019-03-18T07:24:00.572Z,0.80
2019-03-18T07:26:31.657Z,1.00
2019-03-18T07:29:02.620Z,1.03
2019-03-18T07:31:33.699Z,1.37
2019-03-18T07:34:04.779Z,1.20
2019-03-18T07:36:35.745Z,1.00
2019-03-18T07:39:07.671Z,0.70
2019-03-18T07:41:38.745Z,1.13
2019-03-18T07:44:09.467Z,0.80
2019-03-18T07:46:40.907Z,1.10
2019-03-18T07:49:11.989Z,1.00
2019-03-18T07:51:43.672Z,1.00
2019-03-18T07:54:14.871Z,1.00
2019-03-18T07:56:45.952Z,1.10
2019-03-18T07:59:17.991Z,0.97
2019-03-18T08:01:49.075Z,1.30
2019-03-18T08:04:20.275Z,1.30
2019-03-18T08:06:51.716Z,1.10
2019-03-18T08:09:22.685Z,1.10
2019-03-18T08:11:53.761Z,1.53
2019-03-18T08:14:24.479Z,1.20
2019-03-18T08:16:56.401Z,1.40
2019-03-18T08:19:27.723Z,1.27
2019-03-18T08:21:58.683Z,0.90
2019-03-18T08:24:30.011Z,1.00
2019-03-18T08:27:01.328Z,1.00
2019-03-18T08:29:32.649Z,1.07
2019-03-18T08:32:03.853Z,1.00
2019-03-18T08:34:34.823Z,2.60
2019-03-18T08:37:07.213Z,2.00
2019-03-18T08:39:38.653Z,1.00
2019-03-18T08:42:10.096Z,1.30
2019-03-18T08:44:41.541Z,1.30
2019-03-18T08:47:12.859Z,1.00
2019-03-18T08:49:43.337Z,1.30
2019-03-18T08:52:14.423Z,0.97
2019-03-18T08:54:45.739Z,1.03
2019-03-18T08:57:17.061Z,1.40
2019-03-18T08:59:48.864Z,1.10
2019-03-18T09:02:20.063Z,1.20
2019-03-18T09:04:51.866Z,0.90
2019-03-18T09:07:23.155Z,1.17
2019-03-18T09:09:54.390Z,1.40
2019-03-18T09:12:24.871Z,1.00
2019-03-18T09:14:56.191Z,1.10
2019-03-18T09:17:27.152Z,0.90
2019-03-18T09:19:58.233Z,0.97
2019-03-18T09:22:29.193Z,1.17
2019-03-18T09:25:00.343Z,1.50
2019-03-18T09:27:31.597Z,1.37
2019-03-18T09:30:02.557Z,0.90
2019-03-18T09:32:33.408Z,1.20
2019-03-18T09:35:04.496Z,1.13
2019-03-18T09:37:36.882Z,1.20
2019-03-18T09:40:08.210Z,1.17
2019-03-18T09:42:39.044Z,1.10
2019-03-18T09:45:10.485Z,1.27
2019-03-18T09:47:41.806Z,1.10
2019-03-18T09:50:18.651Z,1.00
2019-03-18T09:52:50.810Z,1.10
2019-03-18T09:55:21.657Z,1.40
2019-03-18T09:57:52.852Z,1.10
2019-03-18T10:00:24.294Z,1.20
2019-03-18T10:02:55.017Z,1.00
2019-03-18T10:05:26.093Z,0.80
2019-03-18T10:07:57.418Z,0.90
2019-03-18T10:10:28.141Z,1.10
2019-03-18T10:12:59.219Z,0.93
2019-03-18T10:15:31.019Z,0.93
2019-03-18T10:18:01.983Z,0.70
2019-03-18T10:20:32.822Z,0.90
2019-03-18T10:23:03.305Z,1.13
2019-03-18T10:25:34.146Z,0.93
2019-03-18T10:28:04.748Z,1.17
2019-03-18T10:30:37.029Z,0.90
2019-03-18T10:33:07.994Z,1.00
2019-03-18T10:35:39.318Z,0.90
2019-03-18T10:38:10.151Z,0.90
2019-03-18T10:40:41.644Z,0.80
2019-03-18T10:43:12.914Z,0.70
2019-03-18T10:45:43.926Z,0.80
2019-03-18T10:48:15.198Z,1.00
2019-03-18T10:50:46.404Z,1.10
2019-03-18T10:53:17.733Z,0.87
2019-03-18T10:55:49.642Z,1.00
2019-03-18T10:58:20.842Z,0.80
2019-03-18T11:00:52.284Z,0.90
2019-03-18T11:03:23.484Z,1.00
2019-03-18T11:05:55.166Z,1.00
2019-03-18T11:08:26.612Z,1.00
2019-03-18T11:10:58.170Z,1.40
2019-03-18T11:13:29.130Z,1.43
2019-03-18T11:16:00.216Z,0.83
2019-03-18T11:18:32.131Z,0.90
2019-03-18T11:21:03.580Z,0.83
2019-03-18T11:23:35.374Z,0.90
2019-03-18T11:26:06.109Z,0.93
2019-03-18T11:28:37.058Z,1.10
2019-03-18T11:31:07.901Z,0.90
2019-03-18T11:33:38.980Z,1.30
2019-03-18T11:36:09.940Z,0.83
2019-03-18T11:38:41.269Z,0.97
2019-03-18T11:41:12.468Z,0.90
2019-03-18T11:43:43.423Z,1.10
2019-03-18T11:46:14.628Z,0.90
2019-03-18T11:48:45.881Z,1.00
2019-03-18T11:51:16.790Z,1.33
2019-03-18T11:53:48.110Z,1.03
2019-03-18T11:56:18.951Z,1.30
2019-03-18T11:58:49.914Z,1.20
2019-03-18T12:01:21.234Z,1.30
2019-03-18T12:03:52.434Z,0.90
2019-03-18T12:06:23.517Z,0.80
2019-03-18T12:08:54.478Z,1.00
2019-03-18T12:11:25.918Z,0.80
2019-03-18T12:13:57.600Z,1.43
2019-03-18T12:16:28.802Z,0.93
2019-03-18T12:18:59.641Z,1.03
2019-03-18T12:21:30.481Z,0.83
2019-03-18T12:24:01.567Z,0.90
2019-03-18T12:26:32.416Z,0.73
2019-03-18T12:29:03.728Z,0.80
2019-03-18T12:31:36.010Z,0.93
2019-03-18T12:34:07.213Z,1.00
2019-03-18T12:36:38.895Z,1.07
2019-03-18T12:39:10.222Z,0.87
2019-03-18T12:41:41.894Z,1.27
2019-03-18T12:44:12.863Z,1.20
2019-03-18T12:46:43.703Z,1.10
2019-03-18T12:49:14.898Z,1.23
2019-03-18T12:51:45.864Z,0.97
2019-03-18T12:54:17.902Z,1.20
2019-03-18T12:56:49.340Z,1.10
2019-03-18T12:59:20.423Z,0.80
2019-03-18T13:01:51.864Z,1.23
2019-03-18T13:04:23.064Z,1.10
2019-03-18T13:06:54.995Z,1.07
2019-03-18T13:09:26.069Z,0.80
2019-03-18T13:11:57.390Z,1.00
2019-03-18T13:14:28.709Z,1.07
2019-03-18T13:17:00.513Z,1.10
2019-03-18T13:19:30.994Z,1.10
2019-03-18T13:22:02.432Z,0.97
2019-03-18T13:24:33.396Z,1.00
2019-03-18T13:27:04.479Z,1.30
2019-03-18T13:29:35.080Z,1.10
2019-03-18T13:32:06.038Z,0.90
2019-03-18T13:34:37.000Z,0.80
2019-03-18T13:37:08.563Z,0.80
2019-03-18T13:39:40.002Z,0.80
2019-03-18T13:42:10.845Z,0.70
2019-03-18T13:44:42.165Z,0.80
2019-03-18T13:47:14.927Z,0.80
2019-03-18T13:49:46.011Z,0.90
2019-03-18T13:52:16.969Z,0.70
2019-03-18T13:54:48.298Z,0.90
2019-03-18T13:57:19.851Z,0.77
2019-03-18T13:59:50.453Z,0.87
2019-03-18T14:02:21.773Z,0.83
2019-03-18T14:04:52.740Z,0.73
2019-03-18T14:07:24.897Z,0.73
2019-03-18T14:09:56.099Z,0.93
2019-03-18T14:12:27.539Z,0.70
2019-03-18T14:14:58.499Z,0.70
2019-03-18T14:17:29.463Z,0.90
2019-03-18T14:20:01.348Z,0.90
2019-03-18T14:22:32.463Z,1.10
2019-03-18T14:25:03.787Z,0.83
2019-03-18T14:27:35.587Z,0.70
2019-03-18T14:30:08.347Z,1.00
2019-03-18T14:32:39.550Z,0.70
2019-03-18T14:35:21.359Z,0.90
2019-03-18T14:37:50.958Z,0.73
2019-03-18T14:40:22.155Z,0.80
2019-03-18T14:42:54.675Z,0.90
2019-03-18T14:45:26.239Z,0.97
2019-03-18T14:47:57.080Z,1.30
2019-03-18T14:50:28.640Z,1.00
2019-03-18T14:52:59.723Z,1.00
2019-03-18T14:55:32.001Z,1.30
2019-03-18T14:58:04.044Z,0.70
2019-03-18T15:00:35.004Z,1.67
2019-03-18T15:03:06.686Z,1.10
2019-03-18T15:05:37.907Z,1.20
2019-03-18T15:08:09.008Z,0.83
2019-03-18T15:10:40.530Z,1.13
2019-03-18T15:13:14.132Z,1.10
2019-03-18T15:15:45.692Z,1.10
2019-03-18T15:18:17.012Z,1.00
2019-03-18T15:20:48.093Z,0.97
2019-03-18T15:23:18.815Z,0.97
2019-03-18T15:25:50.255Z,1.30
2019-03-18T15:28:21.458Z,1.00
2019-03-18T15:30:52.419Z,1.20
2019-03-18T15:33:24.579Z,1.10
2019-03-18T15:35:56.500Z,1.30
2019-03-18T15:38:27.582Z,1.60
2019-03-18T15:40:58.785Z,1.30
2019-03-18T15:43:29.745Z,1.50
2019-03-18T15:46:00.828Z,1.33
2019-03-18T15:48:33.013Z,1.03
2019-03-18T15:51:04.311Z,1.20
2019-03-18T15:53:35.392Z,1.00
2019-03-18T15:56:06.710Z,0.90
2019-03-18T15:58:38.033Z,1.70
2019-03-18T16:01:09.361Z,1.27
2019-03-18T16:03:40.679Z,1.40
2019-03-18T16:06:11.756Z,1.73
2019-03-18T16:08:42.959Z,1.20
2019-03-18T16:11:13.920Z,1.50
2019-03-18T16:13:45.000Z,1.17
2019-03-18T16:16:16.014Z,1.00
2019-03-18T16:18:47.043Z,1.10
2019-03-18T16:21:18.006Z,1.13
2019-03-18T16:23:48.847Z,1.10
2019-03-18T16:26:20.170Z,1.00
2019-03-18T16:28:51.612Z,1.40
2019-03-18T16:31:22.695Z,1.20
2019-03-18T16:33:53.896Z,1.20
2019-03-18T16:36:24.850Z,1.10
2019-03-18T16:38:55.694Z,1.40
2019-03-18T16:41:27.015Z,1.40
2019-03-18T16:43:58.340Z,1.20
2019-03-18T16:46:29.297Z,1.33
2019-03-18T16:49:00.258Z,1.23
2019-03-18T16:51:31.818Z,1.60
2019-03-18T16:54:03.499Z,1.17
2019-03-18T16:56:34.580Z,1.30
2019-03-18T16:59:05.304Z,1.27
2019-03-18T17:01:38.677Z,1.20
2019-03-18T17:04:10.345Z,0.90
2019-03-18T17:06:42.162Z,1.00
2019-03-18T17:09:13.394Z,0.80
2019-03-18T17:11:44.557Z,1.10
2019-03-18T17:14:15.754Z,1.10
2019-03-18T17:16:46.711Z,1.17
2019-03-18T17:19:17.799Z,1.30
2019-03-18T17:21:48.888Z,1.00
2019-03-18T17:24:21.758Z,0.90
2019-03-18T17:26:53.199Z,1.10
2019-03-18T17:29:24.040Z,0.97
2019-03-18T17:31:54.999Z,1.00
2019-03-18T17:34:26.562Z,0.90
2019-03-18T17:36:57.401Z,1.50
2019-03-18T17:39:28.122Z,1.00
2019-03-18T17:41:59.569Z,1.13
2019-03-18T17:44:30.645Z,1.10
2019-03-18T17:47:01.727Z,1.13
2019-03-18T17:49:32.808Z,1.10
2019-03-18T17:52:03.892Z,0.97
2019-03-18T17:54:35.571Z,1.23
2019-03-18T17:57:07.798Z,1.03
2019-03-18T17:59:39.071Z,0.93
2019-03-18T18:02:10.132Z,1.10
2019-03-18T18:04:43.135Z,1.33
2019-03-18T18:07:13.978Z,1.10
2019-03-18T18:09:44.824Z,1.57
2019-03-18T18:12:15.906Z,1.40
2019-03-18T18:14:46.621Z,1.10
2019-03-18T18:17:17.582Z,1.00
2019-03-18T18:19:50.704Z,1.30
2019-03-18T18:22:21.784Z,1.10
2019-03-18T18:24:52.507Z,1.43
2019-03-18T18:27:24.669Z,1.57
2019-03-18T18:29:55.990Z,1.90
2019-03-18T18:32:27.310Z,1.73
2019-03-18T18:34:58.636Z,1.77
2019-03-18T18:41:02.487Z,2.30
2019-03-18T18:43:33.316Z,2.00
2019-03-18T18:46:04.398Z,1.90
2019-03-18T18:48:35.481Z,2.00
2019-03-18T18:51:06.804Z,1.87
2019-03-18T18:53:37.999Z,1.67
2019-03-18T18:56:09.083Z,1.90
2019-03-18T18:58:42.929Z,2.13
2019-03-18T19:01:14.131Z,1.87
2019-03-18T19:03:45.086Z,2.03
2019-03-18T19:06:17.250Z,1.60
2019-03-18T19:08:48.331Z,1.83
2019-03-18T19:11:19.411Z,2.10
2019-03-18T19:13:50.853Z,2.20
2019-03-18T19:16:21.932Z,1.80
2019-03-18T19:18:53.974Z,1.70
2019-03-18T19:21:25.054Z,2.17
2019-03-18T19:23:56.373Z,1.83
2019-03-18T19:26:27.696Z,1.77
2019-03-18T19:28:58.420Z,2.40
2019-03-18T19:31:29.500Z,2.03
2019-03-18T19:34:00.580Z,2.10
2019-03-18T19:36:31.662Z,2.20
2019-03-18T19:39:03.952Z,1.70
2019-03-18T19:41:35.144Z,1.97
2019-03-18T19:44:06.956Z,2.23
2019-03-18T19:46:38.038Z,2.30
2019-03-18T19:49:08.987Z,2.10
2019-03-18T19:51:40.671Z,2.00
2019-03-18T19:54:12.997Z,2.17
2019-03-18T19:56:44.512Z,1.93
2019-03-18T19:59:15.595Z,2.47
2019-03-18T20:01:47.032Z,2.53
2019-03-18T20:04:18.119Z,2.53
2019-03-18T20:06:49.440Z,2.87
2019-03-18T20:09:20.748Z,2.23
2019-03-18T20:11:51.959Z,2.43
2019-03-18T20:14:23.883Z,2.73
2019-03-18T20:16:55.202Z,2.40
2019-03-18T20:19:26.763Z,2.40
2019-03-18T20:21:58.095Z,2.43
2019-03-18T20:24:29.167Z,2.40
2019-03-18T20:27:00.128Z,3.00
2019-03-18T20:29:32.407Z,3.07
2019-03-18T20:32:03.851Z,2.60
2019-03-18T20:34:34.690Z,2.70
2019-03-18T20:37:05.893Z,2.60
2019-03-18T20:39:39.018Z,2.83
2019-03-18T20:42:10.217Z,2.43
2019-03-18T20:44:41.176Z,2.47
2019-03-18T20:47:12.856Z,2.57
2019-03-18T20:49:44.060Z,2.53
2019-03-18T20:52:16.933Z,2.33
2019-03-18T20:54:47.904Z,2.53
2019-03-18T20:57:20.780Z,2.23
2019-03-18T20:59:51.747Z,2.30
2019-03-18T21:02:22.944Z,2.50
2019-03-18T21:04:54.024Z,2.13
2019-03-18T21:07:24.987Z,1.50
2019-03-18T21:09:56.312Z,1.77
2019-03-18T21:12:27.028Z,1.37
2019-03-18T21:14:57.991Z,1.80
2019-03-18T21:17:29.682Z,1.60
2019-03-18T21:20:00.874Z,1.60
2019-03-18T21:22:32.556Z,1.90
2019-03-18T21:25:03.637Z,1.93
2019-03-18T21:27:35.721Z,1.87
2019-03-18T21:30:07.002Z,2.10
2019-03-18T21:32:37.719Z,2.77
2019-03-18T21:35:11.331Z,1.90
2019-03-18T21:37:45.762Z,1.80
2019-03-18T21:40:16.726Z,2.10
2019-03-18T21:42:48.164Z,2.23
2019-03-18T21:45:19.366Z,1.97
2019-03-18T21:47:50.931Z,2.03
2019-03-18T21:50:22.964Z,2.30
2019-03-18T21:52:54.771Z,2.33
2019-03-18T21:55:25.851Z,2.13
2019-03-18T21:57:56.458Z,2.60
2019-03-18T22:00:27.534Z,2.87
2019-03-18T22:02:58.135Z,2.20
2019-03-18T22:05:29.338Z,2.27
2019-03-18T22:08:00.299Z,2.40
2019-03-18T22:10:31.981Z,1.97
2019-03-18T22:13:02.939Z,2.17
2019-03-18T22:15:34.261Z,2.40
2019-03-18T22:18:05.349Z,2.60
2019-03-18T22:20:36.303Z,3.10
2019-03-18T22:23:07.747Z,2.43
2019-03-18T22:25:39.788Z,2.77
2019-03-18T22:28:10.988Z,3.40
2019-03-18T22:30:41.950Z,3.60
2019-03-18T22:33:13.029Z,3.57
2019-03-18T22:35:44.231Z,4.03
2019-03-18T22:38:15.675Z,3.20
2019-03-18T22:40:46.755Z,3.70
2019-03-18T22:43:17.595Z,3.37
2019-03-18T22:45:49.041Z,2.70
2019-03-18T22:48:20.367Z,2.90
2019-03-18T22:50:51.447Z,3.00
2019-03-18T22:53:23.479Z,2.50
2019-03-18T22:55:54.681Z,2.57
2019-03-18T22:58:25.883Z,3.17
2019-03-18T23:01:15.203Z,3.13
2019-03-18T23:03:46.540Z,2.60
2019-03-18T23:06:17.728Z,2.87
2019-03-18T23:08:50.492Z,2.73
2019-03-18T23:11:21.331Z,3.20
2019-03-18T23:13:53.009Z,2.20
2019-03-18T23:16:24.091Z,2.70
2019-03-18T23:18:54.813Z,3.00
2019-03-18T23:21:25.775Z,2.67
2019-03-18T23:23:56.376Z,2.40
2019-03-18T23:26:28.417Z,2.30
2019-03-18T23:29:00.705Z,2.33
2019-03-18T23:31:32.022Z,2.50
2019-03-18T23:34:02.982Z,2.37
2019-03-18T23:36:33.582Z,2.90
2019-03-18T23:39:05.867Z,2.27
2019-03-18T23:41:38.386Z,2.33
2019-03-18T23:44:08.987Z,2.60
2019-03-18T23:46:39.827Z,2.50
2019-03-18T23:49:10.787Z,2.53
2019-03-18T23:51:42.349Z,2.47
2019-03-18T23:54:13.819Z,2.53
2019-03-18T23:56:45.474Z,2.60
2019-03-18T23:59:16.314Z,2.40
